createdAt,value
2023-03-11T00:00:13.617Z,99844.31
2023-03-11T00:02:41.130Z,99844.19
2023-03-11T00:05:08.813Z,99845.78
2023-03-11T00:07:37.717Z,99855.06
2023-03-11T00:10:04.923Z,99857.38
2023-03-11T00:12:31.747Z,99852.50
2023-03-11T00:14:58.581Z,99848.09
2023-03-11T00:17:25.332Z,99844.34
2023-03-11T00:19:51.921Z,99841.94
2023-03-11T00:22:18.708Z,99846.47
2023-03-11T00:24:45.352Z,99843.22
2023-03-11T00:27:11.993Z,99842.41
2023-03-11T00:29:38.630Z,99850.25
2023-03-11T00:32:07.229Z,99849.25
2023-03-11T00:34:33.885Z,99854.78
2023-03-11T00:37:00.762Z,99864.25
2023-03-11T00:39:27.320Z,99869.59
2023-03-11T00:41:54.109Z,99868.78
2023-03-11T00:44:21.011Z,99871.56
2023-03-11T00:46:47.634Z,99866.66
2023-03-11T00:49:14.547Z,99872.84
2023-03-11T00:51:41.391Z,99870.56
2023-03-11T00:54:08.105Z,99872.38
2023-03-11T00:56:34.943Z,99877.44
2023-03-11T00:59:01.893Z,99882.44
2023-03-11T01:01:28.815Z,99890.25
2023-03-11T01:03:57.217Z,99891.09
2023-03-11T01:06:26.118Z,99899.84
2023-03-11T01:08:54.636Z,99895.31
2023-03-11T01:11:21.652Z,99894.16
2023-03-11T01:13:48.334Z,99890.91
2023-03-11T01:16:15.376Z,99892.38
2023-03-11T01:18:42.723Z,99893.19
2023-03-11T01:21:09.365Z,99898.22
2023-03-11T01:23:36.196Z,99886.69
2023-03-11T01:26:02.910Z,99888.97
2023-03-11T01:28:29.564Z,99887.00
2023-03-11T01:30:58.759Z,99889.78
2023-03-11T01:33:29.172Z,99894.97
2023-03-11T01:35:55.997Z,99897.25
2023-03-11T01:38:22.666Z,99894.31
2023-03-11T01:40:51.214Z,99895.44
2023-03-11T01:43:37.032Z,99894.97
2023-03-11T01:46:25.907Z,99897.72
2023-03-11T01:48:55.358Z,99902.78
2023-03-11T01:51:41.887Z,99899.84
2023-03-11T01:54:14.709Z,99891.72
2023-03-11T01:56:42.704Z,99897.41
2023-03-11T01:59:14.287Z,99898.06
2023-03-11T02:01:59.462Z,99886.34
2023-03-11T02:04:28.592Z,99896.41
2023-03-11T02:06:58.686Z,99896.59
2023-03-11T02:09:27.023Z,99885.38
2023-03-11T02:11:54.807Z,99892.00
2023-03-11T02:14:21.858Z,99897.88
2023-03-11T02:16:48.564Z,99903.41
2023-03-11T02:19:27.284Z,99900.47
2023-03-11T02:21:55.675Z,99910.22
2023-03-11T02:24:40.901Z,99913.78
2023-03-11T02:27:13.947Z,99918.81
2023-03-11T02:29:43.206Z,99919.63
2023-03-11T02:32:11.092Z,99916.19
2023-03-11T02:34:42.740Z,99915.56
2023-03-11T02:37:12.908Z,99915.38
2023-03-11T02:39:46.465Z,99911.31
2023-03-11T02:42:24.976Z,99917.66
2023-03-11T02:45:08.210Z,99917.47
2023-03-11T02:47:37.897Z,99909.38
2023-03-11T02:50:09.516Z,99910.69
2023-03-11T02:52:36.684Z,99909.72
2023-03-11T02:55:04.359Z,99907.59
2023-03-11T02:57:31.132Z,99900.44
2023-03-11T02:59:58.036Z,99898.75
2023-03-11T03:02:24.757Z,99898.97
2023-03-11T03:04:52.252Z,99903.38
2023-03-11T03:07:19.197Z,99913.38
2023-03-11T03:09:45.964Z,99910.97
2023-03-11T03:12:12.913Z,99915.97
2023-03-11T03:14:39.710Z,99913.69
2023-03-11T03:17:06.559Z,99922.47
2023-03-11T03:19:33.288Z,99925.72
2023-03-11T03:22:00.099Z,99937.41
2023-03-11T03:24:27.300Z,99935.97
2023-03-11T03:26:53.898Z,99941.84
2023-03-11T03:29:20.698Z,99942.44
2023-03-11T03:31:49.236Z,99946.31
2023-03-11T03:34:15.975Z,99944.53
2023-03-11T03:36:42.805Z,99947.00
2023-03-11T03:39:09.704Z,99945.00
2023-03-11T03:41:37.620Z,99950.69
2023-03-11T03:44:06.063Z,99962.84
2023-03-11T03:46:34.480Z,99956.69
2023-03-11T03:49:03.069Z,99957.31
2023-03-11T03:51:31.288Z,99960.09
2023-03-11T03:54:05.741Z,99959.59
2023-03-11T03:56:32.613Z,99955.38
2023-03-11T03:59:01.071Z,99956.50
2023-03-11T04:01:34.375Z,99958.31
2023-03-11T04:04:01.309Z,99961.88
2023-03-11T04:06:28.888Z,99951.28
2023-03-11T04:09:00.594Z,99951.94
2023-03-11T04:11:32.433Z,99949.00
2023-03-11T04:14:02.530Z,99954.66
2023-03-11T04:16:32.328Z,99953.69
2023-03-11T04:19:06.915Z,99951.09
2023-03-11T04:21:34.842Z,99959.56
2023-03-11T04:24:02.022Z,99952.72
2023-03-11T04:26:33.296Z,99954.00
2023-03-11T04:29:00.622Z,99952.34
2023-03-11T04:31:30.533Z,99955.13
2023-03-11T04:33:59.825Z,99961.50
2023-03-11T04:36:26.601Z,99965.22
2023-03-11T04:38:53.569Z,99965.66
2023-03-11T04:41:21.540Z,99960.34
2023-03-11T04:43:48.827Z,99961.97
2023-03-11T04:46:16.210Z,99961.94
2023-03-11T04:48:43.181Z,99962.91
2023-03-11T04:51:10.022Z,99960.78
2023-03-11T04:53:37.217Z,99963.53
2023-03-11T04:56:04.601Z,99969.06
2023-03-11T04:58:31.897Z,99969.69
2023-03-11T05:00:58.889Z,99979.13
2023-03-11T05:03:26.125Z,99975.84
2023-03-11T05:05:56.609Z,99970.84
2023-03-11T05:08:24.670Z,99978.94
2023-03-11T05:10:52.911Z,99985.44
2023-03-11T05:13:21.624Z,99995.16
2023-03-11T05:15:50.453Z,99999.16
2023-03-11T05:18:17.268Z,99997.75
2023-03-11T05:20:44.456Z,100002.31
2023-03-11T05:23:12.458Z,100005.22
2023-03-11T05:25:39.630Z,100000.63
2023-03-11T05:28:06.470Z,100008.06
2023-03-11T05:30:37.683Z,100002.41
2023-03-11T05:33:04.887Z,100002.19
2023-03-11T05:35:32.181Z,100004.00
2023-03-11T05:37:59.284Z,100004.75
2023-03-11T05:40:28.939Z,100010.16
2023-03-11T05:42:55.815Z,100007.84
2023-03-11T05:45:22.965Z,100007.72
2023-03-11T05:47:54.221Z,100010.16
2023-03-11T05:50:20.868Z,100007.22
2023-03-11T05:52:49.268Z,100019.25
2023-03-11T05:55:16.714Z,100022.63
2023-03-11T05:57:45.510Z,100023.16
2023-03-11T06:00:13.101Z,100023.53
2023-03-11T06:02:48.457Z,100022.69
2023-03-11T06:05:18.178Z,100026.56
2023-03-11T06:07:46.968Z,100034.22
2023-03-11T06:10:14.187Z,100036.69
2023-03-11T06:12:41.440Z,100038.94
2023-03-11T06:15:20.710Z,100037.38
2023-03-11T06:17:47.378Z,100041.06
2023-03-11T06:20:14.302Z,100043.44
2023-03-11T06:22:41.747Z,100056.50
2023-03-11T06:25:09.707Z,100050.47
2023-03-11T06:27:38.529Z,100049.47
2023-03-11T06:30:07.339Z,100057.53
2023-03-11T06:32:40.758Z,100064.19
2023-03-11T06:35:08.705Z,100072.78
2023-03-11T06:37:38.283Z,100071.53
2023-03-11T06:40:07.949Z,100079.09
2023-03-11T06:42:35.747Z,100087.88
2023-03-11T06:45:04.438Z,100079.94
2023-03-11T06:47:31.570Z,100089.31
2023-03-11T06:49:59.426Z,100089.16
2023-03-11T06:52:27.009Z,100095.84
2023-03-11T06:54:55.381Z,100101.66
2023-03-11T06:57:22.300Z,100100.34
2023-03-11T06:59:50.854Z,100103.22
2023-03-11T07:02:18.841Z,100114.25
2023-03-11T07:04:49.561Z,100114.66
2023-03-11T07:07:17.908Z,100125.09
2023-03-11T07:09:44.919Z,100129.97
2023-03-11T07:12:15.006Z,100126.50
2023-03-11T07:14:42.157Z,100124.88
2023-03-11T07:17:08.800Z,100135.69
2023-03-11T07:19:45.164Z,100143.69
2023-03-11T07:22:11.988Z,100139.41
2023-03-11T07:24:38.693Z,100137.97
2023-03-11T07:27:05.292Z,100142.94
2023-03-11T07:29:31.910Z,100139.56
2023-03-11T07:31:58.623Z,100143.56
2023-03-11T07:34:25.430Z,100152.88
2023-03-11T07:36:52.217Z,100143.47
2023-03-11T07:39:19.992Z,100151.53
2023-03-11T07:41:47.242Z,100143.47
2023-03-11T07:44:15.903Z,100140.41
2023-03-11T07:46:43.447Z,100151.22
2023-03-11T07:49:10.700Z,100151.97
2023-03-11T07:51:39.522Z,100155.75
2023-03-11T07:54:06.694Z,100155.84
2023-03-11T07:56:35.466Z,100156.75
2023-03-11T07:59:04.298Z,100150.03
2023-03-11T08:01:36.443Z,100167.88
2023-03-11T08:04:08.960Z,100170.44
2023-03-11T08:06:37.235Z,100168.50
2023-03-11T08:09:09.091Z,100160.84
2023-03-11T08:11:36.756Z,100159.13
2023-03-11T08:14:04.562Z,100165.13
2023-03-11T08:16:31.868Z,100174.34
2023-03-11T08:18:58.696Z,100165.25
2023-03-11T08:21:28.788Z,100170.66
2023-03-11T08:24:00.262Z,100164.91
2023-03-11T08:26:27.484Z,100172.69
2023-03-11T08:28:56.091Z,100172.41
2023-03-11T08:31:25.921Z,100172.28
2023-03-11T08:33:56.871Z,100170.75
2023-03-11T08:36:24.023Z,100166.97
2023-03-11T08:38:50.748Z,100178.41
2023-03-11T08:41:17.987Z,100177.38
2023-03-11T08:43:45.101Z,100180.16
2023-03-11T08:46:28.704Z,100175.84
2023-03-11T08:48:56.339Z,100186.09
2023-03-11T08:51:24.429Z,100183.00
2023-03-11T08:53:52.486Z,100184.53
2023-03-11T08:56:19.819Z,100187.19
2023-03-11T08:58:47.301Z,100185.16
2023-03-11T09:01:14.210Z,100189.03
2023-03-11T09:03:40.935Z,100199.16
2023-03-11T09:06:11.411Z,100201.09
2023-03-11T09:08:38.372Z,100212.13
2023-03-11T09:11:05.771Z,100209.47
2023-03-11T09:13:33.156Z,100217.63
2023-03-11T09:16:00.204Z,100218.84
2023-03-11T09:18:27.436Z,100217.81
2023-03-11T09:20:58.277Z,100212.31
2023-03-11T09:23:25.086Z,100222.94
2023-03-11T09:25:52.069Z,100228.06
2023-03-11T09:28:18.885Z,100224.75
2023-03-11T09:30:45.607Z,100229.28
2023-03-11T09:33:12.261Z,100224.59
2023-03-11T09:35:39.811Z,100220.47
2023-03-11T09:38:06.822Z,100233.13
2023-03-11T09:40:44.063Z,100235.41
2023-03-11T09:43:50.448Z,100238.88
2023-03-11T09:46:19.973Z,100236.63
2023-03-11T09:48:57.741Z,100240.09
2023-03-11T09:51:35.292Z,100223.94
2023-03-11T09:54:09.893Z,100224.97
2023-03-11T09:56:37.953Z,100221.69
2023-03-11T09:59:15.058Z,100211.03
2023-03-11T10:01:45.233Z,100213.25
2023-03-11T10:04:18.813Z,100223.75
2023-03-11T10:06:47.344Z,100218.13
2023-03-11T10:09:32.715Z,100221.13
2023-03-11T10:12:08.867Z,100238.19
2023-03-11T10:14:47.953Z,100246.63
2023-03-11T10:17:32.787Z,100245.03
2023-03-11T10:20:17.946Z,100249.19
2023-03-11T10:22:50.827Z,100231.09
2023-03-11T10:25:36.583Z,100235.34
2023-03-11T10:28:13.506Z,100241.59
2023-03-11T10:31:03.413Z,100234.31
2023-03-11T10:33:40.034Z,100239.06
2023-03-11T10:36:14.264Z,100231.59
2023-03-11T10:38:46.719Z,100229.00
2023-03-11T10:41:32.333Z,100227.06
2023-03-11T10:44:04.421Z,100231.13
2023-03-11T10:46:31.141Z,100233.75
2023-03-11T10:48:57.920Z,100242.91
2023-03-11T10:51:34.298Z,100250.38
2023-03-11T10:54:03.754Z,100251.06
2023-03-11T10:56:33.510Z,100263.59
2023-03-11T10:59:01.909Z,100260.03
2023-03-11T11:01:30.369Z,100262.78
2023-03-11T11:04:00.795Z,100269.50
2023-03-11T11:06:32.687Z,100279.13
2023-03-11T11:09:21.043Z,100266.34
2023-03-11T11:15:22.114Z,100242.75
2023-03-11T11:17:49.272Z,100241.59
2023-03-11T11:20:19.345Z,100234.59
2023-03-11T11:22:52.364Z,100238.84
2023-03-11T11:25:35.276Z,100240.00
2023-03-11T11:28:21.363Z,100241.78
2023-03-11T11:30:52.767Z,100240.00
2023-03-11T11:33:30.764Z,100234.75
2023-03-11T11:36:01.420Z,100235.75
2023-03-11T11:38:30.169Z,100249.13
2023-03-11T11:41:01.572Z,100248.44
2023-03-11T11:43:52.283Z,100248.44
2023-03-11T11:46:31.411Z,100247.13
2023-03-11T11:49:08.258Z,100248.78
2023-03-11T11:52:05.967Z,100236.72
2023-03-11T11:54:40.785Z,100237.53
2023-03-11T11:57:19.716Z,100243.91
2023-03-11T11:59:47.237Z,100237.88
2023-03-11T12:02:19.773Z,100246.19
2023-03-11T12:05:23.761Z,100241.47
2023-03-11T12:07:56.119Z,100238.84
2023-03-11T12:10:41.641Z,100241.94
2023-03-11T12:13:29.042Z,100233.63
2023-03-11T12:16:19.002Z,100239.66
2023-03-11T12:19:13.108Z,100230.22
2023-03-11T12:21:58.862Z,100230.22
2023-03-11T12:24:42.552Z,100241.78
2023-03-11T12:27:41.844Z,100244.56
2023-03-11T12:30:27.270Z,100245.53
2023-03-11T12:33:02.448Z,100235.09
2023-03-11T12:35:35.565Z,100245.69
2023-03-11T12:38:20.979Z,100242.59
2023-03-11T12:50:35.376Z,100236.06
2023-03-11T12:53:02.048Z,100240.47
2023-03-11T12:55:34.498Z,100224.19
2023-03-11T12:58:27.590Z,100228.91
2023-03-11T13:01:22.953Z,100217.47
2023-03-11T13:04:21.639Z,100219.75
2023-03-11T13:07:18.992Z,100223.00
2023-03-11T13:09:45.779Z,100209.50
2023-03-11T13:12:47.755Z,100204.41
2023-03-11T13:15:20.387Z,100203.41
2023-03-11T13:18:24.825Z,100202.75
2023-03-11T13:20:58.246Z,100216.16
2023-03-11T13:23:29.686Z,100219.91
2023-03-11T13:25:56.610Z,100215.50
2023-03-11T13:29:04.346Z,100216.47
2023-03-11T13:31:59.242Z,100207.00
2023-03-11T13:34:59.898Z,100208.63
2023-03-11T13:37:44.920Z,100196.06
2023-03-11T13:40:14.346Z,100203.91
2023-03-11T13:42:46.422Z,100198.00
2023-03-11T13:45:27.458Z,100203.56
2023-03-11T13:47:59.032Z,100205.00
2023-03-11T13:50:44.438Z,100195.56
2023-03-11T13:53:21.254Z,100207.75
2023-03-11T13:55:48.535Z,100209.91
2023-03-11T13:58:19.994Z,100212.38
2023-03-11T14:00:49.995Z,100208.44
2023-03-11T14:03:22.111Z,100207.75
2023-03-11T14:05:56.080Z,100210.22
2023-03-11T14:08:24.906Z,100210.34
2023-03-11T14:10:54.941Z,100214.75
2023-03-11T14:13:22.955Z,100210.66
2023-03-11T14:16:04.321Z,100213.38
2023-03-11T14:18:37.801Z,100221.81
2023-03-11T14:21:10.859Z,100216.41
2023-03-11T14:23:43.506Z,100214.25
2023-03-11T14:26:20.892Z,100217.50
2023-03-11T14:28:59.683Z,100217.91
2023-03-11T14:31:31.393Z,100215.97
2023-03-11T14:34:07.563Z,100223.16
2023-03-11T14:36:42.314Z,100222.97
2023-03-11T14:39:27.830Z,100228.50
2023-03-11T14:41:59.806Z,100225.88
2023-03-11T14:44:28.727Z,100231.22
2023-03-11T14:47:09.333Z,100228.78
2023-03-11T14:49:37.157Z,100230.56
2023-03-11T14:52:13.530Z,100226.28
2023-03-11T14:54:41.768Z,100235.84
2023-03-11T14:57:19.093Z,100232.81
2023-03-11T14:59:50.344Z,100228.94
2023-03-11T15:02:26.571Z,100234.47
2023-03-11T15:04:55.331Z,100226.97
2023-03-11T15:07:22.286Z,100222.22
2023-03-11T15:09:52.066Z,100225.31
2023-03-11T15:12:43.225Z,100229.06
2023-03-11T15:15:25.481Z,100229.53
2023-03-11T15:17:57.634Z,100231.03
2023-03-11T15:20:31.158Z,100231.50
2023-03-11T15:23:03.604Z,100232.66
2023-03-11T15:25:34.257Z,100231.84
2023-03-11T15:28:34.738Z,100226.75
2023-03-11T15:31:19.879Z,100235.59
2023-03-11T15:33:48.023Z,100230.03
2023-03-11T15:36:35.777Z,100232.81
2023-03-11T15:39:14.253Z,100230.50
2023-03-11T15:41:42.768Z,100232.75
2023-03-11T15:44:24.625Z,100227.22
2023-03-11T15:46:51.701Z,100226.28
2023-03-11T15:49:18.491Z,100225.75
2023-03-11T15:51:45.209Z,100227.75
2023-03-11T15:54:11.872Z,100230.13
2023-03-11T15:56:40.399Z,100224.63
2023-03-11T15:59:12.144Z,100228.00
2023-03-11T16:01:38.729Z,100221.09
2023-03-11T16:04:12.187Z,100231.31
2023-03-11T16:06:38.855Z,100229.34
2023-03-11T16:09:05.709Z,100220.50
2023-03-11T16:11:32.898Z,100223.09
2023-03-11T16:14:00.232Z,100231.78
2023-03-11T16:16:27.177Z,100233.03
2023-03-11T16:18:54.076Z,100234.22
2023-03-11T16:21:24.175Z,100234.22
2023-03-11T16:23:52.428Z,100239.09
2023-03-11T16:26:19.718Z,100225.97
2023-03-11T16:28:46.380Z,100228.75
2023-03-11T16:31:13.233Z,100224.25
2023-03-11T16:33:39.905Z,100227.16
2023-03-11T16:36:06.647Z,100229.81
2023-03-11T16:38:43.142Z,100226.34
2023-03-11T16:41:10.107Z,100220.66
2023-03-11T16:43:37.166Z,100229.06
2023-03-11T16:46:04.019Z,100228.84
2023-03-11T16:48:30.747Z,100228.31
2023-03-11T16:50:57.416Z,100227.34
2023-03-11T16:53:25.262Z,100227.91
2023-03-11T16:55:52.776Z,100226.81
2023-03-11T16:58:20.177Z,100222.63
2023-03-11T17:00:47.241Z,100218.69
2023-03-11T17:03:15.915Z,100223.75
2023-03-11T17:05:43.188Z,100219.22
2023-03-11T17:08:10.251Z,100222.63
2023-03-11T17:10:38.799Z,100220.88
2023-03-11T17:13:07.308Z,100220.88
2023-03-11T17:15:38.339Z,100224.13
2023-03-11T17:18:06.093Z,100222.63
2023-03-11T17:20:33.588Z,100223.59
2023-03-11T17:23:01.137Z,100219.47
2023-03-11T17:25:27.884Z,100227.03
2023-03-11T17:27:54.581Z,100221.94
2023-03-11T17:30:35.673Z,100226.69
2023-03-11T17:33:03.476Z,100229.25
2023-03-11T17:35:48.901Z,100235.63
2023-03-11T17:38:16.654Z,100225.19
2023-03-11T17:40:43.561Z,100234.81
2023-03-11T17:43:10.501Z,100237.72
2023-03-11T17:45:38.935Z,100234.81
2023-03-11T17:48:05.999Z,100242.81
2023-03-11T17:50:32.902Z,100240.03
2023-03-11T17:52:59.761Z,100245.13
2023-03-11T17:55:26.741Z,100246.28
2023-03-11T17:57:53.531Z,100249.88
2023-03-11T18:00:20.865Z,100254.63
2023-03-11T18:02:47.766Z,100261.81
2023-03-11T18:05:14.538Z,100264.38
2023-03-11T18:07:42.304Z,100261.09
2023-03-11T18:10:10.800Z,100261.47
2023-03-11T18:12:38.743Z,100261.09
2023-03-11T18:15:08.174Z,100273.06
2023-03-11T18:17:35.692Z,100278.97
2023-03-11T18:20:02.909Z,100274.69
2023-03-11T18:22:29.640Z,100271.44
2023-03-11T18:24:56.296Z,100279.44
2023-03-11T18:27:24.474Z,100278.59
2023-03-11T18:29:52.084Z,100279.44
2023-03-11T18:32:20.897Z,100279.44
2023-03-11T18:34:51.345Z,100272.59
2023-03-11T18:37:21.187Z,100277.00
2023-03-11T18:39:48.065Z,100277.69
2023-03-11T18:42:15.953Z,100274.53
2023-03-11T18:44:42.815Z,100278.50
2023-03-11T18:47:09.734Z,100274.53
2023-03-11T18:49:36.659Z,100277.78
2023-03-11T18:52:03.858Z,100279.28
2023-03-11T18:54:30.698Z,100287.97
2023-03-11T18:56:57.546Z,100285.66
2023-03-11T18:59:24.377Z,100286.13
2023-03-11T19:01:51.191Z,100286.47
2023-03-11T19:04:18.052Z,100285.00
2023-03-11T19:06:44.911Z,100291.22
2023-03-11T19:09:11.993Z,100292.88
2023-03-11T19:11:38.839Z,100298.88
2023-03-11T19:14:05.694Z,100293.31
2023-03-11T19:16:32.466Z,100292.19
2023-03-11T19:18:59.310Z,100296.78
2023-03-11T19:21:26.071Z,100298.88
2023-03-11T19:23:55.166Z,100297.47
2023-03-11T19:26:33.774Z,100293.06
2023-03-11T19:29:08.785Z,100290.41
2023-03-11T19:31:35.447Z,100295.84
2023-03-11T19:34:02.199Z,100287.97
2023-03-11T19:36:28.986Z,100299.78
2023-03-11T19:38:55.694Z,100299.78
2023-03-11T19:41:23.212Z,100304.19
2023-03-11T19:43:49.890Z,100298.94
2023-03-11T19:46:19.538Z,100299.31
2023-03-11T19:48:46.486Z,100302.88
2023-03-11T19:51:13.467Z,100298.94
2023-03-11T19:53:41.776Z,100299.78
2023-03-11T19:56:09.463Z,100298.94
2023-03-11T19:58:36.390Z,100294.69
2023-03-11T20:01:03.484Z,100299.78
2023-03-11T20:03:30.537Z,100297.47
2023-03-11T20:06:04.438Z,100292.94
2023-03-11T20:08:36.578Z,100300.44
2023-03-11T20:11:05.598Z,100294.22
2023-03-11T20:13:34.355Z,100298.13
2023-03-11T20:16:12.532Z,100303.69
2023-03-11T20:18:39.726Z,100299.63
2023-03-11T20:21:12.189Z,100305.53
2023-03-11T20:23:40.311Z,100299.78
2023-03-11T20:26:15.291Z,100304.97
2023-03-11T20:28:42.495Z,100307.63
2023-03-11T20:31:17.024Z,100300.72
2023-03-11T20:33:44.185Z,100296.63
2023-03-11T20:36:13.772Z,100294.88
2023-03-11T20:38:41.852Z,100288.84
2023-03-11T20:41:10.058Z,100286.59
2023-03-11T20:43:38.114Z,100293.41
2023-03-11T20:46:06.514Z,100285.41
2023-03-11T20:48:33.762Z,100284.91
2023-03-11T20:51:06.691Z,100281.81
2023-03-11T20:53:34.367Z,100286.69
2023-03-11T20:56:09.899Z,100287.97
2023-03-11T20:58:37.355Z,100285.88
2023-03-11T21:01:16.140Z,100287.97
2023-03-11T21:03:44.440Z,100287.97
2023-03-11T21:06:19.202Z,100285.53
2023-03-11T21:08:50.068Z,100285.06
2023-03-11T21:11:17.624Z,100279.19
2023-03-11T21:13:44.933Z,100276.50
2023-03-11T21:16:11.927Z,100283.72
2023-03-11T21:18:39.869Z,100283.34
2023-03-11T21:21:10.608Z,100283.09
2023-03-11T21:23:39.293Z,100279.84
2023-03-11T21:26:07.012Z,100277.00
2023-03-11T21:28:35.433Z,100271.97
2023-03-11T21:31:08.089Z,100270.22
2023-03-11T21:33:35.080Z,100267.63
2023-03-11T21:36:01.980Z,100267.28
2023-03-11T21:38:32.646Z,100261.44
2023-03-11T21:41:11.944Z,100267.50
2023-03-11T21:43:40.651Z,100265.06
2023-03-11T21:46:08.677Z,100271.16
2023-03-11T21:48:37.633Z,100276.03
2023-03-11T21:51:04.884Z,100266.41
2023-03-11T21:53:32.249Z,100264.22
2023-03-11T21:56:03.755Z,100275.06
2023-03-11T21:58:31.402Z,100267.72
2023-03-11T22:00:58.177Z,100265.94
2023-03-11T22:03:25.158Z,100259.97
2023-03-11T22:06:03.413Z,100262.94
2023-03-11T22:08:30.842Z,100264.94
2023-03-11T22:10:57.691Z,100261.41
2023-03-11T22:13:24.934Z,100258.00
2023-03-11T22:15:52.190Z,100261.16
2023-03-11T22:18:19.273Z,100255.94
2023-03-11T22:20:46.121Z,100262.00
2023-03-11T22:23:12.873Z,100252.88
2023-03-11T22:25:39.715Z,100254.03
2023-03-11T22:28:06.525Z,100256.50
2023-03-11T22:30:33.313Z,100256.03
2023-03-11T22:33:00.010Z,100250.66
2023-03-11T22:35:26.635Z,100245.28
2023-03-11T22:37:53.293Z,100250.19
2023-03-11T22:40:20.200Z,100248.44
2023-03-11T22:42:47.004Z,100246.78
2023-03-11T22:45:13.995Z,100249.72
2023-03-11T22:47:40.676Z,100247.91
2023-03-11T22:50:07.760Z,100244.66
2023-03-11T22:52:34.386Z,100242.88
2023-03-11T22:55:01.118Z,100239.28
2023-03-11T22:57:27.833Z,100238.66
2023-03-11T22:59:54.546Z,100251.53
2023-03-11T23:02:21.578Z,100253.31
2023-03-11T23:04:48.423Z,100254.97
2023-03-11T23:07:15.193Z,100256.44
2023-03-11T23:09:42.909Z,100261.34
2023-03-11T23:12:09.991Z,100252.03
2023-03-11T23:14:44.599Z,100265.75
2023-03-11T23:17:12.068Z,100261.19
2023-03-11T23:19:38.808Z,100252.38
2023-03-11T23:22:24.740Z,100243.91
2023-03-11T23:24:51.589Z,100248.97
2023-03-11T23:27:18.419Z,100247.97
2023-03-11T23:29:45.199Z,100255.16
2023-03-11T23:32:12.027Z,100243.09
2023-03-11T23:34:38.870Z,100245.03
2023-03-11T23:37:05.957Z,100238.53
2023-03-11T23:39:32.691Z,100239.19
2023-03-11T23:41:59.471Z,100235.41
2023-03-11T23:44:26.903Z,100240.97
2023-03-11T23:46:53.771Z,100240.00
2023-03-11T23:49:20.584Z,100239.19
2023-03-11T23:51:47.180Z,100231.19
2023-03-11T23:54:13.855Z,100235.09
2023-03-11T23:56:40.609Z,100228.25
2023-03-11T23:59:07.309Z,100229.41
